sensor_id;sensor_type;location;lat;lon;timestamp;P1;durP1;ratioP1;P2;durP2;ratioP2
22314;SDS011;11325;55.686;37.566;2023-06-14T00:01:49;13.48;;;4.22;;
22314;SDS011;11325;55.686;37.566;2023-06-14T00:04:28;13.45;;;4.42;;
22314;SDS011;11325;55.686;37.566;2023-06-14T00:06:57;5.97;;;4.00;;
22314;SDS011;11325;55.686;37.566;2023-06-14T00:09:25;19.50;;;5.10;;
22314;SDS011;11325;55.686;37.566;2023-06-14T00:12:06;14.25;;;4.40;;
22314;SDS011;11325;55.686;37.566;2023-06-14T00:14:36;12.35;;;4.60;;
22314;SDS011;11325;55.686;37.566;2023-06-14T00:17:05;9.30;;;4.55;;
22314;SDS011;11325;55.686;37.566;2023-06-14T00:19:34;7.30;;;4.25;;
22314;SDS011;11325;55.686;37.566;2023-06-14T00:22:04;13.38;;;4.53;;
22314;SDS011;11325;55.686;37.566;2023-06-14T00:24:43;8.18;;;4.42;;
22314;SDS011;11325;55.686;37.566;2023-06-14T00:27:12;13.50;;;4.62;;
22314;SDS011;11325;55.686;37.566;2023-06-14T00:29:40;16.37;;;5.53;;
22314;SDS011;11325;55.686;37.566;2023-06-14T00:32:09;9.98;;;4.10;;
22314;SDS011;11325;55.686;37.566;2023-06-14T00:34:49;9.18;;;4.47;;
22314;SDS011;11325;55.686;37.566;2023-06-14T00:37:17;12.10;;;4.50;;
22314;SDS011;11325;55.686;37.566;2023-06-14T00:39:46;11.70;;;4.72;;
22314;SDS011;11325;55.686;37.566;2023-06-14T00:42:24;13.32;;;5.03;;
22314;SDS011;11325;55.686;37.566;2023-06-14T00:45:02;16.17;;;5.05;;
22314;SDS011;11325;55.686;37.566;2023-06-14T00:47:32;14.43;;;4.67;;
22314;SDS011;11325;55.686;37.566;2023-06-14T00:50:11;16.90;;;4.92;;
22314;SDS011;11325;55.686;37.566;2023-06-14T00:52:40;8.93;;;4.22;;
22314;SDS011;11325;55.686;37.566;2023-06-14T00:55:09;11.97;;;4.20;;
22314;SDS011;11325;55.686;37.566;2023-06-14T00:57:48;6.62;;;3.77;;
22314;SDS011;11325;55.686;37.566;2023-06-14T01:00:26;9.95;;;4.00;;
22314;SDS011;11325;55.686;37.566;2023-06-14T01:02:56;13.83;;;4.58;;
22314;SDS011;11325;55.686;37.566;2023-06-14T01:05:35;13.28;;;4.60;;
22314;SDS011;11325;55.686;37.566;2023-06-14T01:11:00;21.45;;;4.70;;
22314;SDS011;11325;55.686;37.566;2023-06-14T01:16:14;9.98;;;4.58;;
22314;SDS011;11325;55.686;37.566;2023-06-14T01:18:43;15.48;;;4.80;;
22314;SDS011;11325;55.686;37.566;2023-06-14T01:21:43;12.95;;;4.85;;
22314;SDS011;11325;55.686;37.566;2023-06-14T01:24:22;12.03;;;4.53;;
22314;SDS011;11325;55.686;37.566;2023-06-14T01:27:05;10.78;;;4.85;;
22314;SDS011;11325;55.686;37.566;2023-06-14T01:29:34;11.55;;;5.05;;
22314;SDS011;11325;55.686;37.566;2023-06-14T01:32:04;14.40;;;4.97;;
22314;SDS011;11325;55.686;37.566;2023-06-14T01:34:33;12.10;;;4.78;;
22314;SDS011;11325;55.686;37.566;2023-06-14T01:37:01;17.40;;;4.83;;
22314;SDS011;11325;55.686;37.566;2023-06-14T01:39:30;12.03;;;4.97;;
22314;SDS011;11325;55.686;37.566;2023-06-14T01:41:59;15.45;;;5.05;;
22314;SDS011;11325;55.686;37.566;2023-06-14T01:44:28;12.50;;;5.17;;
22314;SDS011;11325;55.686;37.566;2023-06-14T01:46:57;8.78;;;5.20;;
22314;SDS011;11325;55.686;37.566;2023-06-14T01:49:26;15.58;;;4.78;;
22314;SDS011;11325;55.686;37.566;2023-06-14T01:52:06;19.32;;;4.65;;
22314;SDS011;11325;55.686;37.566;2023-06-14T01:54:47;20.70;;;4.70;;
22314;SDS011;11325;55.686;37.566;2023-06-14T01:57:17;6.70;;;4.45;;
22314;SDS011;11325;55.686;37.566;2023-06-14T01:59:45;10.03;;;4.37;;
22314;SDS011;11325;55.686;37.566;2023-06-14T02:02:25;10.45;;;4.67;;
22314;SDS011;11325;55.686;37.566;2023-06-14T02:05:05;14.47;;;4.65;;
22314;SDS011;11325;55.686;37.566;2023-06-14T02:07:45;17.25;;;5.17;;
22314;SDS011;11325;55.686;37.566;2023-06-14T02:10:14;14.35;;;5.17;;
22314;SDS011;11325;55.686;37.566;2023-06-14T02:12:43;13.28;;;5.47;;
22314;SDS011;11325;55.686;37.566;2023-06-14T02:15:12;19.50;;;4.97;;
22314;SDS011;11325;55.686;37.566;2023-06-14T02:17:53;17.45;;;4.83;;
22314;SDS011;11325;55.686;37.566;2023-06-14T02:20:21;8.88;;;4.67;;
22314;SDS011;11325;55.686;37.566;2023-06-14T02:23:01;12.45;;;5.47;;
22314;SDS011;11325;55.686;37.566;2023-06-14T02:25:29;13.45;;;5.40;;
22314;SDS011;11325;55.686;37.566;2023-06-14T02:27:58;11.10;;;5.25;;
22314;SDS011;11325;55.686;37.566;2023-06-14T02:30:27;13.53;;;6.03;;
22314;SDS011;11325;55.686;37.566;2023-06-14T02:32:56;15.48;;;5.90;;
22314;SDS011;11325;55.686;37.566;2023-06-14T02:35:24;14.50;;;5.83;;
22314;SDS011;11325;55.686;37.566;2023-06-14T02:38:04;12.33;;;5.55;;
22314;SDS011;11325;55.686;37.566;2023-06-14T02:40:33;12.25;;;5.37;;
22314;SDS011;11325;55.686;37.566;2023-06-14T02:43:12;9.03;;;4.72;;
22314;SDS011;11325;55.686;37.566;2023-06-14T02:45:40;12.60;;;5.30;;
22314;SDS011;11325;55.686;37.566;2023-06-14T02:48:18;12.60;;;5.80;;
22314;SDS011;11325;55.686;37.566;2023-06-14T02:50:47;17.48;;;5.62;;
22314;SDS011;11325;55.686;37.566;2023-06-14T02:53:16;12.43;;;5.55;;
22314;SDS011;11325;55.686;37.566;2023-06-14T02:55:55;14.50;;;5.25;;
22314;SDS011;11325;55.686;37.566;2023-06-14T02:58:24;11.40;;;5.50;;
22314;SDS011;11325;55.686;37.566;2023-06-14T03:00:52;14.85;;;5.25;;
22314;SDS011;11325;55.686;37.566;2023-06-14T03:03:21;11.33;;;5.30;;
22314;SDS011;11325;55.686;37.566;2023-06-14T03:06:02;16.37;;;4.65;;
22314;SDS011;11325;55.686;37.566;2023-06-14T03:08:32;13.25;;;6.12;;
22314;SDS011;11325;55.686;37.566;2023-06-14T03:11:14;13.15;;;6.20;;
22314;SDS011;11325;55.686;37.566;2023-06-14T03:13:42;24.40;;;6.78;;
22314;SDS011;11325;55.686;37.566;2023-06-14T03:16:11;18.52;;;7.83;;
22314;SDS011;11325;55.686;37.566;2023-06-14T03:18:39;13.45;;;6.70;;
22314;SDS011;11325;55.686;37.566;2023-06-14T03:21:08;22.20;;;7.10;;
22314;SDS011;11325;55.686;37.566;2023-06-14T03:23:38;15.50;;;6.90;;
22314;SDS011;11325;55.686;37.566;2023-06-14T03:26:07;15.93;;;7.00;;
22314;SDS011;11325;55.686;37.566;2023-06-14T03:28:46;10.68;;;5.97;;
22314;SDS011;11325;55.686;37.566;2023-06-14T03:31:26;22.20;;;6.33;;
22314;SDS011;11325;55.686;37.566;2023-06-14T03:33:55;13.43;;;6.62;;
22314;SDS011;11325;55.686;37.566;2023-06-14T03:36:23;13.83;;;6.67;;
22314;SDS011;11325;55.686;37.566;2023-06-14T03:39:04;19.70;;;7.15;;
22314;SDS011;11325;55.686;37.566;2023-06-14T03:41:33;22.13;;;6.83;;
22314;SDS011;11325;55.686;37.566;2023-06-14T03:44:01;12.60;;;6.03;;
22314;SDS011;11325;55.686;37.566;2023-06-14T03:46:30;15.63;;;6.75;;
22314;SDS011;11325;55.686;37.566;2023-06-14T03:48:58;16.48;;;6.03;;
22314;SDS011;11325;55.686;37.566;2023-06-14T03:51:38;11.57;;;6.17;;
22314;SDS011;11325;55.686;37.566;2023-06-14T03:54:07;16.12;;;6.30;;
22314;SDS011;11325;55.686;37.566;2023-06-14T03:56:47;11.75;;;6.10;;
22314;SDS011;11325;55.686;37.566;2023-06-14T03:59:31;14.13;;;6.85;;
22314;SDS011;11325;55.686;37.566;2023-06-14T04:02:00;19.75;;;6.62;;
22314;SDS011;11325;55.686;37.566;2023-06-14T04:04:39;17.20;;;7.10;;
22314;SDS011;11325;55.686;37.566;2023-06-14T04:07:20;16.57;;;6.83;;
22314;SDS011;11325;55.686;37.566;2023-06-14T04:09:48;15.43;;;7.10;;
22314;SDS011;11325;55.686;37.566;2023-06-14T04:12:17;12.58;;;6.20;;
22314;SDS011;11325;55.686;37.566;2023-06-14T04:14:46;15.25;;;6.67;;
22314;SDS011;11325;55.686;37.566;2023-06-14T04:17:15;16.60;;;6.15;;
22314;SDS011;11325;55.686;37.566;2023-06-14T04:19:54;13.35;;;6.40;;
22314;SDS011;11325;55.686;37.566;2023-06-14T04:22:22;8.15;;;5.87;;
22314;SDS011;11325;55.686;37.566;2023-06-14T04:25:01;17.05;;;6.62;;
22314;SDS011;11325;55.686;37.566;2023-06-14T04:27:30;13.50;;;6.12;;
22314;SDS011;11325;55.686;37.566;2023-06-14T04:30:10;15.38;;;6.00;;
22314;SDS011;11325;55.686;37.566;2023-06-14T04:32:39;16.90;;;5.83;;
22314;SDS011;11325;55.686;37.566;2023-06-14T04:35:08;17.45;;;6.72;;
22314;SDS011;11325;55.686;37.566;2023-06-14T04:37:47;17.52;;;7.42;;
22314;SDS011;11325;55.686;37.566;2023-06-14T04:40:26;16.45;;;6.53;;
22314;SDS011;11325;55.686;37.566;2023-06-14T04:43:05;12.93;;;6.05;;
22314;SDS011;11325;55.686;37.566;2023-06-14T04:45:34;13.85;;;7.20;;
22314;SDS011;11325;55.686;37.566;2023-06-14T04:48:14;15.23;;;7.72;;
22314;SDS011;11325;55.686;37.566;2023-06-14T04:50:54;15.55;;;6.78;;
22314;SDS011;11325;55.686;37.566;2023-06-14T04:53:23;16.73;;;7.00;;
22314;SDS011;11325;55.686;37.566;2023-06-14T04:55:51;15.03;;;6.92;;
22314;SDS011;11325;55.686;37.566;2023-06-14T04:58:31;25.60;;;7.62;;
22314;SDS011;11325;55.686;37.566;2023-06-14T05:01:10;20.60;;;7.83;;
22314;SDS011;11325;55.686;37.566;2023-06-14T05:03:50;18.55;;;7.62;;
22314;SDS011;11325;55.686;37.566;2023-06-14T05:06:18;18.98;;;7.58;;
22314;SDS011;11325;55.686;37.566;2023-06-14T05:08:47;14.90;;;6.53;;
22314;SDS011;11325;55.686;37.566;2023-06-14T05:11:15;16.15;;;7.37;;
22314;SDS011;11325;55.686;37.566;2023-06-14T05:14:02;17.92;;;7.92;;
22314;SDS011;11325;55.686;37.566;2023-06-14T05:16:30;14.28;;;6.83;;
22314;SDS011;11325;55.686;37.566;2023-06-14T05:18:59;13.38;;;5.92;;
22314;SDS011;11325;55.686;37.566;2023-06-14T05:21:28;24.25;;;8.55;;
22314;SDS011;11325;55.686;37.566;2023-06-14T05:24:07;11.22;;;5.30;;
22314;SDS011;11325;55.686;37.566;2023-06-14T05:26:36;14.63;;;5.80;;
22314;SDS011;11325;55.686;37.566;2023-06-14T05:29:05;13.13;;;4.37;;
22314;SDS011;11325;55.686;37.566;2023-06-14T05:31:44;14.53;;;5.15;;
22314;SDS011;11325;55.686;37.566;2023-06-14T05:34:12;14.73;;;5.58;;
22314;SDS011;11325;55.686;37.566;2023-06-14T05:36:50;12.15;;;4.92;;
22314;SDS011;11325;55.686;37.566;2023-06-14T05:39:19;7.97;;;4.30;;
22314;SDS011;11325;55.686;37.566;2023-06-14T05:41:48;18.05;;;5.25;;
22314;SDS011;11325;55.686;37.566;2023-06-14T05:44:16;14.58;;;5.65;;
22314;SDS011;11325;55.686;37.566;2023-06-14T05:46:56;9.05;;;4.67;;
22314;SDS011;11325;55.686;37.566;2023-06-14T05:49:24;13.48;;;4.28;;
22314;SDS011;11325;55.686;37.566;2023-06-14T05:52:03;8.98;;;3.83;;
22314;SDS011;11325;55.686;37.566;2023-06-14T05:54:32;15.15;;;4.22;;
22314;SDS011;11325;55.686;37.566;2023-06-14T05:57:01;7.75;;;3.98;;
22314;SDS011;11325;55.686;37.566;2023-06-14T05:59:31;9.55;;;4.12;;
22314;SDS011;11325;55.686;37.566;2023-06-14T06:02:10;6.67;;;3.70;;
22314;SDS011;11325;55.686;37.566;2023-06-14T06:04:38;11.80;;;4.10;;
22314;SDS011;11325;55.686;37.566;2023-06-14T06:07:18;19.30;;;4.15;;
22314;SDS011;11325;55.686;37.566;2023-06-14T06:09:57;10.20;;;3.77;;
22314;SDS011;11325;55.686;37.566;2023-06-14T06:12:35;9.08;;;3.90;;
22314;SDS011;11325;55.686;37.566;2023-06-14T06:15:14;9.13;;;4.12;;
22314;SDS011;11325;55.686;37.566;2023-06-14T06:17:55;7.67;;;3.17;;
22314;SDS011;11325;55.686;37.566;2023-06-14T06:20:24;6.87;;;3.20;;
22314;SDS011;11325;55.686;37.566;2023-06-14T06:23:07;8.73;;;2.47;;
22314;SDS011;11325;55.686;37.566;2023-06-14T06:25:37;13.20;;;3.08;;
22314;SDS011;11325;55.686;37.566;2023-06-14T06:28:05;5.30;;;2.70;;
22314;SDS011;11325;55.686;37.566;2023-06-14T06:30:34;4.00;;;2.87;;
22314;SDS011;11325;55.686;37.566;2023-06-14T06:33:14;5.78;;;3.00;;
22314;SDS011;11325;55.686;37.566;2023-06-14T06:35:53;9.53;;;3.27;;
22314;SDS011;11325;55.686;37.566;2023-06-14T06:38:22;11.12;;;3.62;;
22314;SDS011;11325;55.686;37.566;2023-06-14T06:41:01;6.35;;;2.40;;
22314;SDS011;11325;55.686;37.566;2023-06-14T06:43:29;7.42;;;2.92;;
22314;SDS011;11325;55.686;37.566;2023-06-14T06:45:58;6.10;;;2.80;;
22314;SDS011;11325;55.686;37.566;2023-06-14T06:48:36;5.60;;;2.35;;
22314;SDS011;11325;55.686;37.566;2023-06-14T06:51:05;6.28;;;2.80;;
22314;SDS011;11325;55.686;37.566;2023-06-14T06:53:34;4.03;;;2.70;;
22314;SDS011;11325;55.686;37.566;2023-06-14T06:56:13;7.33;;;2.87;;
22314;SDS011;11325;55.686;37.566;2023-06-14T06:58:42;7.03;;;2.87;;
22314;SDS011;11325;55.686;37.566;2023-06-14T07:01:21;7.17;;;2.55;;
22314;SDS011;11325;55.686;37.566;2023-06-14T07:03:50;9.13;;;3.58;;
22314;SDS011;11325;55.686;37.566;2023-06-14T07:06:29;7.33;;;3.12;;
22314;SDS011;11325;55.686;37.566;2023-06-14T07:08:58;5.30;;;2.60;;
22314;SDS011;11325;55.686;37.566;2023-06-14T07:11:28;6.00;;;2.77;;
22314;SDS011;11325;55.686;37.566;2023-06-14T07:13:57;7.70;;;2.95;;
22314;SDS011;11325;55.686;37.566;2023-06-14T07:16:26;7.28;;;2.33;;
22314;SDS011;11325;55.686;37.566;2023-06-14T07:18:54;7.28;;;2.80;;
22314;SDS011;11325;55.686;37.566;2023-06-14T07:21:23;8.00;;;2.90;;
22314;SDS011;11325;55.686;37.566;2023-06-14T07:23:53;5.10;;;2.70;;
22314;SDS011;11325;55.686;37.566;2023-06-14T07:26:22;6.00;;;2.70;;
22314;SDS011;11325;55.686;37.566;2023-06-14T07:28:51;6.55;;;2.83;;
22314;SDS011;11325;55.686;37.566;2023-06-14T07:31:20;5.92;;;2.90;;
22314;SDS011;11325;55.686;37.566;2023-06-14T07:33:59;5.58;;;2.70;;
22314;SDS011;11325;55.686;37.566;2023-06-14T07:36:38;6.75;;;2.35;;
22314;SDS011;11325;55.686;37.566;2023-06-14T07:39:17;6.95;;;3.37;;
22314;SDS011;11325;55.686;37.566;2023-06-14T07:41:56;8.03;;;3.05;;
22314;SDS011;11325;55.686;37.566;2023-06-14T07:44:27;10.03;;;4.33;;
22314;SDS011;11325;55.686;37.566;2023-06-14T07:46:55;5.47;;;2.35;;
22314;SDS011;11325;55.686;37.566;2023-06-14T07:49:25;5.50;;;2.40;;
22314;SDS011;11325;55.686;37.566;2023-06-14T07:51:54;5.03;;;2.62;;
22314;SDS011;11325;55.686;37.566;2023-06-14T07:54:34;8.00;;;2.90;;
22314;SDS011;11325;55.686;37.566;2023-06-14T07:57:03;9.05;;;3.62;;
22314;SDS011;11325;55.686;37.566;2023-06-14T07:59:33;4.72;;;2.37;;
22314;SDS011;11325;55.686;37.566;2023-06-14T08:02:02;5.85;;;2.90;;
22314;SDS011;11325;55.686;37.566;2023-06-14T08:04:48;5.85;;;3.30;;
22314;SDS011;11325;55.686;37.566;2023-06-14T08:07:27;12.13;;;3.22;;
22314;SDS011;11325;55.686;37.566;2023-06-14T08:09:55;10.70;;;3.62;;
22314;SDS011;11325;55.686;37.566;2023-06-14T08:12:34;5.50;;;2.90;;
22314;SDS011;11325;55.686;37.566;2023-06-14T08:15:14;6.12;;;3.20;;
22314;SDS011;11325;55.686;37.566;2023-06-14T08:17:43;5.75;;;2.87;;
22314;SDS011;11325;55.686;37.566;2023-06-14T08:20:22;8.45;;;3.30;;
22314;SDS011;11325;55.686;37.566;2023-06-14T08:22:51;7.58;;;3.10;;
22314;SDS011;11325;55.686;37.566;2023-06-14T08:25:32;10.13;;;3.22;;
22314;SDS011;11325;55.686;37.566;2023-06-14T08:28:10;9.53;;;3.02;;
22314;SDS011;11325;55.686;37.566;2023-06-14T08:30:39;5.60;;;2.72;;
22314;SDS011;11325;55.686;37.566;2023-06-14T08:33:18;8.48;;;2.70;;
22314;SDS011;11325;55.686;37.566;2023-06-14T08:35:46;12.58;;;3.30;;
22314;SDS011;11325;55.686;37.566;2023-06-14T08:38:26;11.00;;;3.15;;
22314;SDS011;11325;55.686;37.566;2023-06-14T08:41:06;10.53;;;2.98;;
22314;SDS011;11325;55.686;37.566;2023-06-14T08:43:35;11.43;;;2.92;;
22314;SDS011;11325;55.686;37.566;2023-06-14T08:46:17;7.78;;;3.00;;
22314;SDS011;11325;55.686;37.566;2023-06-14T08:51:27;7.47;;;3.45;;
22314;SDS011;11325;55.686;37.566;2023-06-14T08:53:57;15.18;;;3.08;;
22314;SDS011;11325;55.686;37.566;2023-06-14T08:56:36;5.37;;;3.00;;
22314;SDS011;11325;55.686;37.566;2023-06-14T08:59:06;11.15;;;3.62;;
22314;SDS011;11325;55.686;37.566;2023-06-14T09:01:36;8.28;;;3.52;;
22314;SDS011;11325;55.686;37.566;2023-06-14T09:04:06;8.78;;;2.58;;
22314;SDS011;11325;55.686;37.566;2023-06-14T09:06:34;4.28;;;2.70;;
22314;SDS011;11325;55.686;37.566;2023-06-14T09:09:04;5.80;;;2.83;;
22314;SDS011;11325;55.686;37.566;2023-06-14T09:11:32;6.42;;;3.12;;
22314;SDS011;11325;55.686;37.566;2023-06-14T09:14:11;3.95;;;2.77;;
22314;SDS011;11325;55.686;37.566;2023-06-14T09:16:40;3.67;;;3.10;;
22314;SDS011;11325;55.686;37.566;2023-06-14T09:19:08;4.62;;;3.05;;
22314;SDS011;11325;55.686;37.566;2023-06-14T09:21:39;10.35;;;2.65;;
22314;SDS011;11325;55.686;37.566;2023-06-14T09:24:19;4.25;;;2.70;;
22314;SDS011;11325;55.686;37.566;2023-06-14T09:26:48;8.20;;;3.15;;
22314;SDS011;11325;55.686;37.566;2023-06-14T09:29:27;11.80;;;2.90;;
22314;SDS011;11325;55.686;37.566;2023-06-14T09:31:56;5.72;;;3.20;;
22314;SDS011;11325;55.686;37.566;2023-06-14T09:34:24;8.95;;;3.85;;
22314;SDS011;11325;55.686;37.566;2023-06-14T09:36:53;10.08;;;3.50;;
22314;SDS011;11325;55.686;37.566;2023-06-14T09:39:22;8.18;;;3.35;;
22314;SDS011;11325;55.686;37.566;2023-06-14T09:41:52;8.00;;;3.70;;
22314;SDS011;11325;55.686;37.566;2023-06-14T09:44:21;6.65;;;3.22;;
22314;SDS011;11325;55.686;37.566;2023-06-14T09:47:08;3.65;;;2.92;;
22314;SDS011;11325;55.686;37.566;2023-06-14T09:49:47;4.85;;;3.12;;
22314;SDS011;11325;55.686;37.566;2023-06-14T09:52:26;6.75;;;3.47;;
22314;SDS011;11325;55.686;37.566;2023-06-14T09:54:55;10.93;;;3.72;;
22314;SDS011;11325;55.686;37.566;2023-06-14T09:57:25;9.88;;;3.12;;
22314;SDS011;11325;55.686;37.566;2023-06-14T10:00:04;5.30;;;2.90;;
22314;SDS011;11325;55.686;37.566;2023-06-14T10:02:35;5.95;;;3.55;;
22314;SDS011;11325;55.686;37.566;2023-06-14T10:05:05;6.03;;;3.30;;
22314;SDS011;11325;55.686;37.566;2023-06-14T10:07:53;13.03;;;3.75;;
22314;SDS011;11325;55.686;37.566;2023-06-14T10:10:22;5.95;;;3.10;;
22314;SDS011;11325;55.686;37.566;2023-06-14T10:13:07;5.95;;;3.00;;
22314;SDS011;11325;55.686;37.566;2023-06-14T10:15:58;4.58;;;2.92;;
22314;SDS011;11325;55.686;37.566;2023-06-14T10:18:28;7.35;;;3.15;;
22314;SDS011;11325;55.686;37.566;2023-06-14T10:21:23;5.03;;;3.40;;
22314;SDS011;11325;55.686;37.566;2023-06-14T10:23:54;9.10;;;2.92;;
22314;SDS011;11325;55.686;37.566;2023-06-14T10:26:23;9.70;;;2.92;;
22314;SDS011;11325;55.686;37.566;2023-06-14T10:29:09;6.97;;;3.12;;
22314;SDS011;11325;55.686;37.566;2023-06-14T10:31:47;16.23;;;3.35;;
22314;SDS011;11325;55.686;37.566;2023-06-14T10:34:29;6.12;;;2.80;;
22314;SDS011;11325;55.686;37.566;2023-06-14T10:37:02;9.30;;;3.15;;
22314;SDS011;11325;55.686;37.566;2023-06-14T10:39:32;8.45;;;2.65;;
22314;SDS011;11325;55.686;37.566;2023-06-14T10:42:01;4.97;;;2.98;;
22314;SDS011;11325;55.686;37.566;2023-06-14T10:44:32;13.58;;;3.55;;
22314;SDS011;11325;55.686;37.566;2023-06-14T10:47:01;6.28;;;3.47;;
22314;SDS011;11325;55.686;37.566;2023-06-14T10:49:37;4.85;;;3.50;;
22314;SDS011;11325;55.686;37.566;2023-06-14T10:52:10;6.00;;;3.33;;
22314;SDS011;11325;55.686;37.566;2023-06-14T10:57:45;6.33;;;3.33;;
22314;SDS011;11325;55.686;37.566;2023-06-14T11:00:25;5.83;;;3.17;;
22314;SDS011;11325;55.686;37.566;2023-06-14T11:05:49;11.22;;;3.75;;
22314;SDS011;11325;55.686;37.566;2023-06-14T11:08:51;10.15;;;3.60;;
22314;SDS011;11325;55.686;37.566;2023-06-14T11:11:17;11.03;;;3.50;;
22314;SDS011;11325;55.686;37.566;2023-06-14T11:13:46;11.93;;;3.67;;
22314;SDS011;11325;55.686;37.566;2023-06-14T11:16:26;9.35;;;3.50;;
22314;SDS011;11325;55.686;37.566;2023-06-14T11:19:07;5.08;;;3.20;;
22314;SDS011;11325;55.686;37.566;2023-06-14T11:21:49;4.17;;;3.40;;
22314;SDS011;11325;55.686;37.566;2023-06-14T11:24:29;4.92;;;3.12;;
22314;SDS011;11325;55.686;37.566;2023-06-14T11:26:57;7.03;;;3.70;;
22314;SDS011;11325;55.686;37.566;2023-06-14T11:29:26;4.75;;;3.62;;
22314;SDS011;11325;55.686;37.566;2023-06-14T11:31:56;9.60;;;3.37;;
22314;SDS011;11325;55.686;37.566;2023-06-14T11:34:25;9.70;;;3.08;;
22314;SDS011;11325;55.686;37.566;2023-06-14T11:36:54;4.67;;;2.92;;
22314;SDS011;11325;55.686;37.566;2023-06-14T11:39:24;8.38;;;3.00;;
22314;SDS011;11325;55.686;37.566;2023-06-14T11:41:52;4.22;;;2.87;;
22314;SDS011;11325;55.686;37.566;2023-06-14T11:44:33;5.70;;;2.85;;
22314;SDS011;11325;55.686;37.566;2023-06-14T11:47:12;6.62;;;2.77;;
22314;SDS011;11325;55.686;37.566;2023-06-14T11:49:40;6.25;;;3.10;;
22314;SDS011;11325;55.686;37.566;2023-06-14T11:52:09;13.90;;;3.27;;
22314;SDS011;11325;55.686;37.566;2023-06-14T11:54:38;5.80;;;2.90;;
22314;SDS011;11325;55.686;37.566;2023-06-14T11:57:19;8.85;;;3.17;;
22314;SDS011;11325;55.686;37.566;2023-06-14T11:59:48;6.22;;;3.27;;
22314;SDS011;11325;55.686;37.566;2023-06-14T12:02:17;5.95;;;3.45;;
22314;SDS011;11325;55.686;37.566;2023-06-14T12:04:46;12.23;;;3.17;;
22314;SDS011;11325;55.686;37.566;2023-06-14T12:07:16;8.40;;;2.98;;
22314;SDS011;11325;55.686;37.566;2023-06-14T12:12:40;4.65;;;3.02;;
22314;SDS011;11325;55.686;37.566;2023-06-14T12:15:19;6.90;;;2.83;;
22314;SDS011;11325;55.686;37.566;2023-06-14T12:17:47;4.35;;;2.98;;
22314;SDS011;11325;55.686;37.566;2023-06-14T12:20:16;11.57;;;3.10;;
22314;SDS011;11325;55.686;37.566;2023-06-14T12:22:59;3.35;;;3.00;;
22314;SDS011;11325;55.686;37.566;2023-06-14T12:25:30;8.85;;;3.30;;
22314;SDS011;11325;55.686;37.566;2023-06-14T12:28:12;5.85;;;3.37;;
22314;SDS011;11325;55.686;37.566;2023-06-14T12:30:40;7.95;;;3.35;;
22314;SDS011;11325;55.686;37.566;2023-06-14T12:33:09;4.53;;;3.10;;
22314;SDS011;11325;55.686;37.566;2023-06-14T12:35:38;5.22;;;3.37;;
22314;SDS011;11325;55.686;37.566;2023-06-14T12:38:07;6.80;;;3.60;;
22314;SDS011;11325;55.686;37.566;2023-06-14T12:40:46;11.18;;;3.20;;
22314;SDS011;11325;55.686;37.566;2023-06-14T12:43:15;8.53;;;3.95;;
22314;SDS011;11325;55.686;37.566;2023-06-14T12:45:43;8.18;;;3.00;;
22314;SDS011;11325;55.686;37.566;2023-06-14T12:48:21;6.28;;;3.05;;
22314;SDS011;11325;55.686;37.566;2023-06-14T12:51:01;4.40;;;2.60;;
22314;SDS011;11325;55.686;37.566;2023-06-14T12:53:29;9.88;;;3.40;;
22314;SDS011;11325;55.686;37.566;2023-06-14T12:55:58;8.13;;;3.72;;
22314;SDS011;11325;55.686;37.566;2023-06-14T12:58:38;8.85;;;3.17;;
22314;SDS011;11325;55.686;37.566;2023-06-14T13:01:17;3.40;;;2.67;;
22314;SDS011;11325;55.686;37.566;2023-06-14T13:06:25;6.80;;;3.12;;
22314;SDS011;11325;55.686;37.566;2023-06-14T13:08:54;5.25;;;2.87;;
22314;SDS011;11325;55.686;37.566;2023-06-14T13:11:34;3.35;;;2.95;;
22314;SDS011;11325;55.686;37.566;2023-06-14T13:14:02;10.35;;;2.77;;
22314;SDS011;11325;55.686;37.566;2023-06-14T13:16:31;9.78;;;3.35;;
22314;SDS011;11325;55.686;37.566;2023-06-14T13:18:59;3.87;;;2.72;;
22314;SDS011;11325;55.686;37.566;2023-06-14T13:21:44;9.40;;;2.95;;
22314;SDS011;11325;55.686;37.566;2023-06-14T13:24:13;6.12;;;2.52;;
22314;SDS011;11325;55.686;37.566;2023-06-14T13:26:52;5.12;;;3.22;;
22314;SDS011;11325;55.686;37.566;2023-06-14T13:29:22;5.12;;;2.98;;
22314;SDS011;11325;55.686;37.566;2023-06-14T13:32:02;10.43;;;3.20;;
22314;SDS011;11325;55.686;37.566;2023-06-14T13:34:40;11.70;;;3.17;;
22314;SDS011;11325;55.686;37.566;2023-06-14T13:37:19;3.85;;;2.67;;
22314;SDS011;11325;55.686;37.566;2023-06-14T13:39:47;7.12;;;3.02;;
22314;SDS011;11325;55.686;37.566;2023-06-14T13:42:16;5.70;;;3.37;;
22314;SDS011;11325;55.686;37.566;2023-06-14T13:44:56;5.72;;;2.67;;
22314;SDS011;11325;55.686;37.566;2023-06-14T13:47:24;5.37;;;3.02;;
22314;SDS011;11325;55.686;37.566;2023-06-14T13:50:03;4.85;;;3.10;;
22314;SDS011;11325;55.686;37.566;2023-06-14T13:52:42;5.30;;;2.95;;
22314;SDS011;11325;55.686;37.566;2023-06-14T13:55:10;10.13;;;3.22;;
22314;SDS011;11325;55.686;37.566;2023-06-14T13:57:49;5.92;;;3.15;;
22314;SDS011;11325;55.686;37.566;2023-06-14T14:00:29;3.65;;;2.72;;
22314;SDS011;11325;55.686;37.566;2023-06-14T14:02:58;4.85;;;2.87;;
22314;SDS011;11325;55.686;37.566;2023-06-14T14:05:27;5.33;;;3.08;;
22314;SDS011;11325;55.686;37.566;2023-06-14T14:07:58;4.05;;;3.05;;
22314;SDS011;11325;55.686;37.566;2023-06-14T14:10:40;9.83;;;3.22;;
22314;SDS011;11325;55.686;37.566;2023-06-14T14:13:20;7.08;;;3.47;;
22314;SDS011;11325;55.686;37.566;2023-06-14T14:15:48;6.20;;;2.80;;
22314;SDS011;11325;55.686;37.566;2023-06-14T14:18:18;5.08;;;3.08;;
22314;SDS011;11325;55.686;37.566;2023-06-14T14:20:48;5.17;;;2.80;;
22314;SDS011;11325;55.686;37.566;2023-06-14T14:23:27;6.45;;;3.27;;
22314;SDS011;11325;55.686;37.566;2023-06-14T14:26:06;6.97;;;3.15;;
22314;SDS011;11325;55.686;37.566;2023-06-14T14:28:35;6.53;;;3.05;;
22314;SDS011;11325;55.686;37.566;2023-06-14T14:31:03;5.47;;;2.80;;
22314;SDS011;11325;55.686;37.566;2023-06-14T14:33:43;6.17;;;2.87;;
22314;SDS011;11325;55.686;37.566;2023-06-14T14:36:12;7.15;;;2.85;;
22314;SDS011;11325;55.686;37.566;2023-06-14T14:38:51;6.17;;;2.83;;
22314;SDS011;11325;55.686;37.566;2023-06-14T14:41:20;5.55;;;2.90;;
22314;SDS011;11325;55.686;37.566;2023-06-14T14:43:49;7.62;;;3.15;;
22314;SDS011;11325;55.686;37.566;2023-06-14T14:46:17;4.17;;;2.90;;
22314;SDS011;11325;55.686;37.566;2023-06-14T14:48:56;4.22;;;2.65;;
22314;SDS011;11325;55.686;37.566;2023-06-14T14:51:25;5.53;;;2.75;;
22314;SDS011;11325;55.686;37.566;2023-06-14T14:53:53;4.35;;;2.98;;
22314;SDS011;11325;55.686;37.566;2023-06-14T14:56:22;9.48;;;3.12;;
22314;SDS011;11325;55.686;37.566;2023-06-14T14:59:01;9.05;;;3.33;;
22314;SDS011;11325;55.686;37.566;2023-06-14T15:01:41;4.35;;;3.10;;
22314;SDS011;11325;55.686;37.566;2023-06-14T15:04:19;4.70;;;2.70;;
22314;SDS011;11325;55.686;37.566;2023-06-14T15:06:48;7.00;;;2.95;;
22314;SDS011;11325;55.686;37.566;2023-06-14T15:09:27;7.62;;;3.40;;
22314;SDS011;11325;55.686;37.566;2023-06-14T15:11:56;3.95;;;2.70;;
22314;SDS011;11325;55.686;37.566;2023-06-14T15:14:35;8.53;;;3.00;;
22314;SDS011;11325;55.686;37.566;2023-06-14T15:17:26;4.12;;;2.90;;
22314;SDS011;11325;55.686;37.566;2023-06-14T15:19:55;4.67;;;2.58;;
22314;SDS011;11325;55.686;37.566;2023-06-14T15:22:40;14.45;;;2.75;;
22314;SDS011;11325;55.686;37.566;2023-06-14T15:25:09;5.92;;;2.50;;